createdAt,value
2022-09-02T00:01:26.331Z,54.46
2022-09-02T00:03:57.783Z,55.10
2022-09-02T00:06:24.950Z,54.64
2022-09-02T00:08:51.626Z,54.57
2022-09-02T00:11:23.147Z,54.92
2022-09-02T00:13:50.691Z,54.58
2022-09-02T00:16:17.950Z,54.46
2022-09-02T00:18:45.861Z,54.54
2022-09-02T00:21:14.349Z,54.72
2022-09-02T00:23:43.782Z,54.69
2022-09-02T00:26:11.749Z,56.19
2022-09-02T00:28:39.700Z,56.22
2022-09-02T00:31:11.011Z,56.76
2022-09-02T00:33:38.850Z,57.16
2022-09-02T00:36:06.443Z,56.82
2022-09-02T00:38:35.917Z,55.93
2022-09-02T00:41:06.559Z,57.02
2022-09-02T00:43:54.119Z,56.69
2022-09-02T00:46:24.397Z,58.02
2022-09-02T00:49:01.032Z,58.03
2022-09-02T00:51:33.139Z,58.41
2022-09-02T00:54:00.855Z,58.31
2022-09-02T00:56:30.984Z,58.20
2022-09-02T00:58:59.210Z,57.91
2022-09-02T01:01:27.284Z,57.51
2022-09-02T01:03:54.401Z,57.50
2022-09-02T01:06:25.167Z,58.76
2022-09-02T01:08:58.750Z,59.23
2022-09-02T01:11:39.192Z,60.39
2022-09-02T01:14:07.393Z,59.10
2022-09-02T01:16:48.029Z,59.46
2022-09-02T01:19:49.295Z,59.63
2022-09-02T01:22:24.918Z,60.28
2022-09-02T01:24:52.560Z,60.67
2022-09-02T01:27:21.400Z,59.99
2022-09-02T01:29:57.723Z,60.00
2022-09-02T01:32:25.817Z,59.91
2022-09-02T01:34:54.175Z,59.94
2022-09-02T01:37:21.076Z,58.51
2022-09-02T01:39:48.734Z,57.98
2022-09-02T01:42:15.907Z,58.06
2022-09-02T01:44:45.959Z,57.87
2022-09-02T01:47:18.344Z,58.56
2022-09-02T01:49:46.899Z,57.18
2022-09-02T01:52:15.298Z,57.54
2022-09-02T01:54:42.218Z,58.32
2022-09-02T01:57:09.423Z,58.67
2022-09-02T01:59:37.441Z,57.67
2022-09-02T02:02:05.160Z,57.67
2022-09-02T02:04:33.510Z,58.29
2022-09-02T02:07:00.486Z,58.35
2022-09-02T02:09:27.487Z,58.59
2022-09-02T02:11:54.525Z,58.66
2022-09-02T02:14:21.914Z,59.64
2022-09-02T02:16:50.468Z,59.79
2022-09-02T02:19:18.196Z,60.24
2022-09-02T02:21:45.123Z,60.27
2022-09-02T02:24:11.919Z,60.01
2022-09-02T02:26:38.662Z,60.24
2022-09-02T02:29:07.652Z,59.88
2022-09-02T02:31:35.946Z,60.67
2022-09-02T02:34:04.126Z,60.30
2022-09-02T02:36:31.569Z,60.51
2022-09-02T02:38:58.564Z,60.68
2022-09-02T02:41:25.853Z,60.23
2022-09-02T02:43:52.728Z,60.39
2022-09-02T02:46:19.811Z,60.89
2022-09-02T02:48:46.659Z,60.78
2022-09-02T02:51:13.463Z,60.45
2022-09-02T02:53:40.851Z,60.93
2022-09-02T02:56:08.180Z,61.17
2022-09-02T02:58:34.910Z,60.23
2022-09-02T03:01:02.183Z,60.34
2022-09-02T03:03:29.904Z,60.18
2022-09-02T03:05:58.311Z,60.49
2022-09-02T03:08:27.069Z,59.65
2022-09-02T03:10:56.288Z,60.01
2022-09-02T03:13:26.985Z,61.78
2022-09-02T03:15:57.027Z,61.76
2022-09-02T03:18:24.082Z,61.45
2022-09-02T03:20:51.174Z,61.19
2022-09-02T03:23:18.970Z,61.05
2022-09-02T03:25:48.751Z,60.74
2022-09-02T03:28:24.879Z,60.59
2022-09-02T03:30:51.907Z,61.65
2022-09-02T03:33:19.120Z,61.23
2022-09-02T03:35:46.596Z,61.27
2022-09-02T03:38:13.465Z,61.19
2022-09-02T03:40:42.282Z,62.30
2022-09-02T03:43:09.428Z,62.42
2022-09-02T03:45:38.865Z,62.76
2022-09-02T03:48:05.931Z,62.09
2022-09-02T03:50:40.118Z,62.74
2022-09-02T03:53:09.745Z,62.77
2022-09-02T03:55:47.729Z,63.44
2022-09-02T03:58:17.641Z,62.88
2022-09-02T04:00:50.464Z,62.67
2022-09-02T04:03:18.041Z,62.12
2022-09-02T04:05:50.809Z,63.57
2022-09-02T04:08:19.531Z,63.78
2022-09-02T04:10:46.898Z,63.47
2022-09-02T04:13:13.762Z,62.94
2022-09-02T04:15:45.056Z,63.86
2022-09-02T04:18:12.366Z,62.39
2022-09-02T04:20:40.409Z,62.86
2022-09-02T04:23:07.899Z,63.30
2022-09-02T04:25:39.810Z,63.45
2022-09-02T04:28:06.575Z,63.35
2022-09-02T04:30:34.484Z,63.23
2022-09-02T04:33:01.864Z,64.82
2022-09-02T04:35:29.150Z,64.24
2022-09-02T04:37:55.920Z,63.79
2022-09-02T04:40:24.120Z,64.15
2022-09-02T04:42:55.371Z,64.31
2022-09-02T04:45:27.777Z,63.89
2022-09-02T04:47:56.922Z,63.38
2022-09-02T04:50:23.683Z,63.33
2022-09-02T04:53:00.148Z,64.31
2022-09-02T04:55:28.983Z,64.48
2022-09-02T04:57:56.135Z,63.84
2022-09-02T05:00:23.326Z,63.51
2022-09-02T05:02:50.307Z,63.84
2022-09-02T05:05:17.175Z,64.21
2022-09-02T05:07:43.977Z,63.98
2022-09-02T05:10:13.428Z,63.51
2022-09-02T05:12:42.707Z,63.67
2022-09-02T05:15:10.662Z,62.70
2022-09-02T05:17:37.958Z,63.71
2022-09-02T05:20:08.331Z,63.46
2022-09-02T05:22:37.158Z,63.62
2022-09-02T05:25:07.598Z,63.36
2022-09-02T05:27:36.130Z,62.67
2022-09-02T05:30:04.422Z,63.23
2022-09-02T05:32:37.817Z,63.41
2022-09-02T05:35:06.184Z,63.68
2022-09-02T05:37:35.812Z,64.24
2022-09-02T05:40:05.728Z,64.60
2022-09-02T05:42:37.083Z,64.41
2022-09-02T05:45:04.826Z,64.38
2022-09-02T05:47:34.369Z,65.34
2022-09-02T05:50:01.762Z,63.91
2022-09-02T05:52:33.131Z,64.39
2022-09-02T05:55:00.787Z,64.23
2022-09-02T05:57:27.356Z,64.77
2022-09-02T05:59:58.464Z,64.17
2022-09-02T06:02:40.724Z,64.46
2022-09-02T06:05:12.182Z,63.69
2022-09-02T06:07:43.986Z,63.38
2022-09-02T06:10:11.472Z,63.33
2022-09-02T06:12:42.437Z,64.78
2022-09-02T06:15:10.624Z,64.27
2022-09-02T06:17:38.984Z,63.05
2022-09-02T06:20:06.529Z,62.60
2022-09-02T06:22:33.623Z,63.84
2022-09-02T06:25:00.420Z,62.03
2022-09-02T06:27:27.398Z,62.56
2022-09-02T06:29:55.628Z,62.32
2022-09-02T06:32:24.384Z,62.17
2022-09-02T06:34:57.200Z,62.21
2022-09-02T06:37:25.780Z,61.72
2022-09-02T06:39:53.001Z,62.36
2022-09-02T06:42:24.392Z,62.11
2022-09-02T06:45:31.284Z,63.06
2022-09-02T06:48:00.937Z,62.08
2022-09-02T06:50:29.316Z,60.09
2022-09-02T06:52:56.141Z,60.34
2022-09-02T06:55:23.801Z,60.45
2022-09-02T06:57:50.568Z,59.99
2022-09-02T07:00:20.717Z,59.96
2022-09-02T07:03:07.662Z,59.28
2022-09-02T07:05:35.093Z,59.09
2022-09-02T07:08:02.071Z,60.44
2022-09-02T07:10:29.196Z,60.08
2022-09-02T07:12:56.856Z,59.23
2022-09-02T07:15:23.764Z,59.06
2022-09-02T07:17:50.618Z,58.37
2022-09-02T07:20:25.473Z,57.41
2022-09-02T07:22:57.043Z,57.32
2022-09-02T07:25:27.030Z,58.24
2022-09-02T07:27:54.675Z,57.42
2022-09-02T07:30:22.168Z,56.94
2022-09-02T07:32:55.239Z,57.76
2022-09-02T07:35:24.782Z,57.43
2022-09-02T07:37:52.315Z,57.94
2022-09-02T07:40:21.107Z,56.14
2022-09-02T07:42:48.426Z,53.40
2022-09-02T07:45:15.154Z,51.94
2022-09-02T07:47:44.045Z,53.26
2022-09-02T07:50:19.822Z,53.29
2022-09-02T07:52:52.676Z,53.89
2022-09-02T07:55:19.499Z,54.75
2022-09-02T07:57:46.737Z,55.35
2022-09-02T08:00:16.515Z,54.01
2022-09-02T08:02:47.432Z,54.31
2022-09-02T08:05:21.008Z,54.64
2022-09-02T08:07:47.957Z,52.80
2022-09-02T08:10:16.787Z,53.02
2022-09-02T08:12:44.563Z,53.53
2022-09-02T08:15:12.404Z,52.15
2022-09-02T08:17:43.267Z,52.34
2022-09-02T08:20:12.866Z,51.79
2022-09-02T08:22:40.320Z,51.32
2022-09-02T08:25:08.133Z,50.67
2022-09-02T08:27:35.825Z,50.12
2022-09-02T08:30:09.953Z,50.49
2022-09-02T08:32:38.688Z,50.33
2022-09-02T08:35:07.645Z,49.97
2022-09-02T08:37:35.371Z,49.38
2022-09-02T08:40:05.267Z,48.84
2022-09-02T08:42:31.923Z,48.35
2022-09-02T08:45:06.596Z,48.51
2022-09-02T08:47:36.048Z,47.56
2022-09-02T08:50:13.271Z,46.35
2022-09-02T08:52:46.015Z,47.12
2022-09-02T08:55:22.497Z,47.33
2022-09-02T08:57:50.026Z,47.51
2022-09-02T09:00:17.385Z,45.72
2022-09-02T09:02:56.868Z,45.06
2022-09-02T09:05:30.625Z,44.28
2022-09-02T09:08:03.499Z,43.94
2022-09-02T09:10:57.048Z,43.83
2022-09-02T09:13:33.560Z,43.43
2022-09-02T09:16:26.138Z,43.77
2022-09-02T09:19:15.224Z,42.67
2022-09-02T09:21:42.729Z,43.47
2022-09-02T09:24:30.660Z,42.11
2022-09-02T09:26:58.724Z,41.30
2022-09-02T09:29:25.353Z,41.19
2022-09-02T09:31:57.396Z,40.00
2022-09-02T09:34:24.358Z,40.60
2022-09-02T09:36:53.796Z,39.79
2022-09-02T09:39:31.697Z,39.31
2022-09-02T09:42:04.299Z,38.88
2022-09-02T09:44:48.328Z,38.07
2022-09-02T09:47:23.161Z,38.38
2022-09-02T09:49:52.209Z,37.39
2022-09-02T09:52:29.846Z,37.80
2022-09-02T09:55:22.723Z,39.14
2022-09-02T09:57:52.686Z,37.19
2022-09-02T10:00:33.168Z,37.00
2022-09-02T10:03:05.456Z,37.88
2022-09-02T10:05:40.341Z,36.77
2022-09-02T10:08:22.625Z,35.60
2022-09-02T10:11:04.510Z,35.90
2022-09-02T10:13:33.791Z,35.11
2022-09-02T10:16:08.285Z,36.21
2022-09-02T10:18:54.689Z,36.32
2022-09-02T10:21:45.249Z,35.37
2022-09-02T10:24:56.344Z,35.04
2022-09-02T10:27:41.624Z,34.16
2022-09-02T10:30:16.847Z,34.81
2022-09-02T10:33:00.141Z,34.65
2022-09-02T10:35:52.161Z,34.10
2022-09-02T10:38:39.916Z,33.09
2022-09-02T10:41:15.529Z,33.97
2022-09-02T10:43:57.191Z,33.60
2022-09-02T10:46:25.592Z,35.11
2022-09-02T10:49:14.011Z,34.11
2022-09-02T10:51:57.348Z,32.50
2022-09-02T10:54:45.509Z,31.06
2022-09-02T10:57:18.437Z,31.65
2022-09-02T10:59:57.502Z,32.38
2022-09-02T11:02:38.183Z,31.87
2022-09-02T11:05:14.071Z,30.34
2022-09-02T11:07:51.517Z,31.44
2022-09-02T11:10:25.189Z,28.41
2022-09-02T11:13:04.057Z,28.96
2022-09-02T11:15:40.648Z,28.44
2022-09-02T11:18:15.214Z,27.91
2022-09-02T11:21:03.839Z,26.19
2022-09-02T11:23:42.475Z,23.79
2022-09-02T11:26:21.033Z,22.35
2022-09-02T11:28:54.547Z,21.31
2022-09-02T11:31:38.886Z,20.01
2022-09-02T11:34:22.668Z,19.50
2022-09-02T11:36:49.813Z,20.75
2022-09-02T11:39:36.319Z,20.04
2022-09-02T11:42:30.913Z,20.00
2022-09-02T11:45:23.500Z,22.14
2022-09-02T11:48:09.373Z,24.92
2022-09-02T11:50:41.876Z,24.31
2022-09-02T11:53:20.730Z,26.67
2022-09-02T11:56:05.267Z,28.84
2022-09-02T11:58:35.150Z,29.98
2022-09-02T12:01:25.865Z,28.77
2022-09-02T12:07:09.601Z,29.01
2022-09-02T12:09:55.968Z,29.98
2022-09-02T12:12:38.975Z,28.65
2022-09-02T12:15:06.078Z,28.00
2022-09-02T12:17:40.074Z,29.33
2022-09-02T12:20:11.372Z,30.91
2022-09-02T12:22:40.161Z,30.41
2022-09-02T12:25:27.004Z,28.25
2022-09-02T12:28:27.160Z,27.87
2022-09-02T12:31:07.714Z,27.61
2022-09-02T12:33:44.192Z,28.62
2022-09-02T12:36:37.141Z,30.70
2022-09-02T12:39:35.222Z,30.24
2022-09-02T12:42:06.702Z,30.62
2022-09-02T12:44:57.334Z,29.99
2022-09-02T12:47:38.609Z,29.17
2022-09-02T12:50:20.945Z,28.57
2022-09-02T12:52:50.050Z,28.96
2022-09-02T12:55:16.810Z,28.67
2022-09-02T12:57:47.388Z,28.05
2022-09-02T13:00:19.643Z,27.40
2022-09-02T13:03:01.856Z,28.21
2022-09-02T13:05:43.294Z,28.73
2022-09-02T13:08:20.120Z,28.38
2022-09-02T13:11:11.360Z,27.26
2022-09-02T13:14:08.896Z,28.39
2022-09-02T13:16:40.005Z,29.55
2022-09-02T13:19:31.080Z,28.13
2022-09-02T13:22:16.583Z,28.82
2022-09-02T13:25:18.708Z,29.98
2022-09-02T13:28:02.296Z,30.39
2022-09-02T13:31:10.819Z,29.49
2022-09-02T13:33:42.318Z,30.25
2022-09-02T13:36:10.069Z,29.52
2022-09-02T13:38:38.915Z,30.97
2022-09-02T13:41:05.964Z,29.34
2022-09-02T13:43:32.676Z,28.83
2022-09-02T13:46:02.106Z,28.56
2022-09-02T13:48:33.155Z,28.51
2022-09-02T13:51:12.012Z,29.25
2022-09-02T13:54:18.569Z,29.57
2022-09-02T13:56:36.231Z,27.98
2022-09-02T13:59:02.894Z,27.31
2022-09-02T14:01:33.147Z,27.26
2022-09-02T14:04:21.013Z,26.85
2022-09-02T14:06:48.676Z,27.80
2022-09-02T14:09:22.349Z,25.80
2022-09-02T14:11:50.264Z,26.29
2022-09-02T14:14:22.068Z,26.65
2022-09-02T14:16:49.257Z,27.73
2022-09-02T14:19:21.973Z,28.05
2022-09-02T14:21:51.839Z,26.30
2022-09-02T14:24:30.743Z,23.29
2022-09-02T14:26:59.477Z,23.12
2022-09-02T14:29:29.190Z,21.63
2022-09-02T14:32:14.366Z,21.92
2022-09-02T14:34:43.568Z,22.70
2022-09-02T14:37:24.102Z,22.70
2022-09-02T14:40:12.719Z,22.50
2022-09-02T14:42:50.887Z,23.34
2022-09-02T14:45:32.580Z,24.48
2022-09-02T14:48:03.402Z,24.20
2022-09-02T14:50:32.817Z,25.37
2022-09-02T14:53:05.766Z,26.48
2022-09-02T14:55:54.111Z,26.97
2022-09-02T14:58:27.107Z,27.92
2022-09-02T15:00:58.076Z,28.52
2022-09-02T15:03:25.745Z,28.28
2022-09-02T15:05:53.770Z,28.65
2022-09-02T15:08:21.246Z,29.58
2022-09-02T15:10:49.413Z,29.39
2022-09-02T15:13:34.338Z,29.82
2022-09-02T15:16:02.884Z,30.21
2022-09-02T15:18:29.801Z,28.89
2022-09-02T15:20:57.601Z,30.28
2022-09-02T15:23:24.757Z,29.68
2022-09-02T15:25:52.978Z,29.04
2022-09-02T15:28:19.632Z,30.52
2022-09-02T15:30:46.420Z,29.48
2022-09-02T15:33:17.410Z,30.24
2022-09-02T15:35:45.227Z,30.92
2022-09-02T15:38:12.001Z,30.21
2022-09-02T15:40:38.960Z,29.62
2022-09-02T15:43:05.553Z,29.31
2022-09-02T15:45:32.228Z,29.39
2022-09-02T15:47:59.611Z,29.69
2022-09-02T15:50:28.664Z,30.31
2022-09-02T15:52:56.073Z,30.89
2022-09-02T15:55:29.097Z,29.92
2022-09-02T15:57:56.267Z,32.93
2022-09-02T16:00:23.004Z,32.47
2022-09-02T16:02:54.756Z,32.30
2022-09-02T16:05:21.484Z,31.76
2022-09-02T16:07:48.632Z,31.64
2022-09-02T16:10:15.358Z,31.80
2022-09-02T16:12:42.214Z,31.98
2022-09-02T16:15:09.245Z,32.32
2022-09-02T16:17:36.258Z,32.29
2022-09-02T16:20:04.833Z,32.42
2022-09-02T16:22:31.559Z,33.17
2022-09-02T16:24:58.198Z,32.68
2022-09-02T16:27:43.603Z,32.64
2022-09-02T16:30:10.691Z,32.16
2022-09-02T16:32:37.900Z,32.55
2022-09-02T16:35:04.912Z,31.44
2022-09-02T16:37:31.557Z,32.19
2022-09-02T16:39:58.356Z,31.54
2022-09-02T16:42:25.801Z,30.94
2022-09-02T16:44:52.664Z,31.88
2022-09-02T16:47:19.421Z,31.28
2022-09-02T16:49:46.551Z,30.98
2022-09-02T16:52:13.530Z,31.54
2022-09-02T16:54:41.274Z,31.36
2022-09-02T16:57:08.416Z,32.13
2022-09-02T16:59:35.486Z,32.53
2022-09-02T17:02:02.254Z,32.11
2022-09-02T17:04:29.663Z,31.94
2022-09-02T17:06:56.676Z,32.53
2022-09-02T17:09:23.460Z,32.63
2022-09-02T17:11:50.347Z,32.08
2022-09-02T17:14:21.687Z,32.85
2022-09-02T17:16:50.382Z,32.96
2022-09-02T17:19:22.566Z,33.13
2022-09-02T17:21:54.077Z,32.95
2022-09-02T17:24:24.234Z,33.97
2022-09-02T17:26:54.379Z,35.36
2022-09-02T17:29:48.110Z,34.88
2022-09-02T17:32:10.377Z,34.28
2022-09-02T17:34:37.172Z,34.61
2022-09-02T17:37:05.328Z,35.19
2022-09-02T17:39:34.163Z,35.21
2022-09-02T17:42:02.169Z,35.30
2022-09-02T17:44:38.474Z,34.72
2022-09-02T17:47:08.121Z,35.21
2022-09-02T17:49:36.769Z,34.83
2022-09-02T17:52:08.275Z,34.89
2022-09-02T17:54:36.986Z,35.23
2022-09-02T17:57:20.234Z,34.49
2022-09-02T18:00:08.096Z,35.11
2022-09-02T18:02:36.496Z,35.85
2022-09-02T18:05:28.949Z,35.49
2022-09-02T18:08:04.762Z,34.76
2022-09-02T18:10:37.246Z,35.62
2022-09-02T18:13:09.216Z,35.46
2022-09-02T18:15:51.713Z,35.32
2022-09-02T18:18:21.731Z,35.85
2022-09-02T18:20:57.202Z,36.15
2022-09-02T18:23:42.831Z,36.83
2022-09-02T18:26:24.902Z,35.89
2022-09-02T18:29:29.420Z,35.67
2022-09-02T18:32:17.064Z,36.32
2022-09-02T18:34:59.213Z,36.92
2022-09-02T18:37:45.691Z,37.52
2022-09-02T18:40:51.299Z,37.09
2022-09-02T18:43:40.591Z,36.32
2022-09-02T18:46:11.299Z,36.96
2022-09-02T18:48:39.280Z,37.06
2022-09-02T18:51:25.130Z,36.49
2022-09-02T18:53:57.204Z,37.10
2022-09-02T18:56:31.139Z,36.78
2022-09-02T18:59:07.995Z,36.97
2022-09-02T19:01:48.120Z,37.66
2022-09-02T19:04:14.923Z,38.11
2022-09-02T19:06:41.748Z,38.40
2022-09-02T19:09:13.296Z,37.93
2022-09-02T19:11:40.565Z,37.17
2022-09-02T19:14:23.023Z,38.03
2022-09-02T19:16:50.077Z,38.18
2022-09-02T19:19:18.279Z,38.64
2022-09-02T19:21:52.721Z,37.64
2022-09-02T19:24:25.475Z,38.37
2022-09-02T19:26:59.610Z,37.43
2022-09-02T19:29:26.788Z,37.49
2022-09-02T19:31:54.715Z,36.86
2022-09-02T19:34:22.720Z,37.30
2022-09-02T19:36:51.414Z,38.06
2022-09-02T19:39:18.157Z,37.82
2022-09-02T19:41:45.836Z,38.60
2022-09-02T19:44:15.444Z,38.50
2022-09-02T19:47:30.666Z,38.14
2022-09-02T19:49:29.015Z,38.33
2022-09-02T19:51:56.788Z,38.35
2022-09-02T19:54:23.763Z,38.01
2022-09-02T19:56:50.471Z,39.05
2022-09-02T19:59:17.168Z,38.31
2022-09-02T20:01:43.868Z,38.13
2022-09-02T20:04:11.695Z,38.49
2022-09-02T20:06:39.559Z,37.97
2022-09-02T20:09:07.057Z,38.99
2022-09-02T20:11:34.668Z,38.79
2022-09-02T20:14:04.399Z,38.59
2022-09-02T20:16:31.301Z,38.68
2022-09-02T20:18:58.162Z,38.18
2022-09-02T20:21:28.486Z,38.72
2022-09-02T20:24:00.074Z,38.69
2022-09-02T20:26:53.411Z,39.00
2022-09-02T20:29:38.971Z,38.60
2022-09-02T20:32:26.141Z,39.27
2022-09-02T20:35:14.398Z,39.76
2022-09-02T20:37:59.357Z,39.06
2022-09-02T20:40:48.065Z,39.38
2022-09-02T20:43:31.441Z,39.47
2022-09-02T20:46:09.851Z,39.20
2022-09-02T20:48:51.905Z,38.94
2022-09-02T20:51:31.021Z,39.77
2022-09-02T20:54:10.823Z,39.49
2022-09-02T20:56:40.499Z,40.14
2022-09-02T20:59:16.258Z,39.82
2022-09-02T21:01:45.536Z,39.22
2022-09-02T21:04:21.310Z,39.51
2022-09-02T21:06:58.578Z,40.10
2022-09-02T21:09:28.475Z,39.39
2022-09-02T21:12:03.971Z,40.07
2022-09-02T21:14:43.850Z,39.90
2022-09-02T21:17:19.771Z,40.85
2022-09-02T21:20:09.703Z,39.69
2022-09-02T21:22:40.086Z,40.16
2022-09-02T21:25:12.962Z,39.43
2022-09-02T21:27:46.898Z,39.20
2022-09-02T21:30:19.885Z,40.38
2022-09-02T21:32:46.587Z,39.82
2022-09-02T21:35:24.129Z,40.57
2022-09-02T21:38:01.415Z,39.57
2022-09-02T21:40:56.483Z,40.29
2022-09-02T21:43:37.640Z,39.48
2022-09-02T21:46:26.181Z,40.57
2022-09-02T21:49:12.855Z,40.05
2022-09-02T21:51:48.535Z,39.91
2022-09-02T21:54:25.320Z,39.33
2022-09-02T21:57:04.123Z,40.29
2022-09-02T21:59:39.702Z,40.36
2022-09-02T22:02:14.954Z,40.31
2022-09-02T22:04:44.754Z,40.92
2022-09-02T22:07:21.091Z,41.16
2022-09-02T22:10:05.451Z,40.74
2022-09-02T22:12:39.640Z,40.91
2022-09-02T22:15:16.820Z,40.58
2022-09-02T22:17:45.728Z,41.09
2022-09-02T22:20:17.969Z,41.21
2022-09-02T22:22:53.271Z,41.08
2022-09-02T22:25:23.025Z,41.42
2022-09-02T22:28:15.686Z,41.66
2022-09-02T22:30:51.888Z,42.07
2022-09-02T22:33:24.082Z,42.18
2022-09-02T22:36:06.258Z,42.54
2022-09-02T22:38:44.232Z,41.42
2022-09-02T22:41:11.410Z,40.65
2022-09-02T22:43:49.127Z,41.12
2022-09-02T22:46:46.537Z,41.13
2022-09-02T22:49:39.992Z,41.90
2022-09-02T22:52:29.764Z,41.09
2022-09-02T22:54:56.829Z,41.59
2022-09-02T22:57:48.618Z,40.95
2022-09-02T23:00:18.548Z,41.07
2022-09-02T23:03:00.409Z,41.46
2022-09-02T23:05:45.558Z,41.39
2022-09-02T23:08:14.885Z,41.66
2022-09-02T23:11:13.632Z,41.76
2022-09-02T23:14:09.147Z,42.17
2022-09-02T23:16:46.189Z,42.22
2022-09-02T23:19:45.340Z,42.57
2022-09-02T23:22:33.937Z,42.82
2022-09-02T23:25:20.816Z,42.69
2022-09-02T23:27:56.007Z,42.78
2022-09-02T23:30:22.847Z,42.65
2022-09-02T23:33:10.020Z,43.11
2022-09-02T23:35:52.076Z,43.51
2022-09-02T23:38:52.618Z,43.36
2022-09-02T23:41:20.287Z,43.88
2022-09-02T23:43:46.916Z,43.48
2022-09-02T23:46:34.933Z,43.62
2022-09-02T23:49:38.975Z,44.13
2022-09-02T23:52:33.588Z,44.23
2022-09-02T23:55:32.779Z,44.94
2022-09-02T23:58:23.469Z,44.25
